Time;durP1;ratioP1;P1;durP2;ratioP2;P2;SDS_P1;SDS_P2;PMS_P1;PMS_P2;Temp;Humidity;BMP_temperature;BMP_pressure;BME280_temperature;BME280_humidity;BME280_pressure;Samples;Min_cycle;Max_cycle;Signal;HPM_P1;HPM_P2
2021/06/06 00:01:35;;;;;;;102.40;48.50;;;;;;;;;;5052659;28;20795;-56
2021/06/06 00:04:01;;;;;;;99.67;49.47;;;;;;;;;;5052390;28;20413;-56
2021/06/06 00:06:28;;;;;;;102.63;49.87;;;;;;;;;;5052574;28;20500;-55
2021/06/06 00:08:55;;;;;;;100.13;47.80;;;;;;;;;;5052176;28;20413;-56
2021/06/06 00:11:24;;;;;;;89.33;46.10;;;;;;;;;;5051777;28;20418;-55
2021/06/06 00:13:51;;;;;;;93.13;45.90;;;;;;;;;;5052566;28;20467;-56
2021/06/06 00:16:22;;;;;;;91.53;44.60;;;;;;;;;;5052428;28;20406;-55
2021/06/06 00:18:48;;;;;;;88.50;43.23;;;;;;;;;;5052219;28;20434;-56
2021/06/06 00:21:15;;;;;;;124.07;49.30;;;;;;;;;;5052088;28;20376;-56
2021/06/06 00:23:41;;;;;;;112.40;49.00;;;;;;;;;;5052056;28;20965;-56
2021/06/06 00:26:07;;;;;;;107.03;48.97;;;;;;;;;;5052206;28;20488;-55
2021/06/06 00:28:34;;;;;;;106.57;48.07;;;;;;;;;;5052116;28;20396;-55
2021/06/06 00:31:00;;;;;;;110.23;50.33;;;;;;;;;;5052034;28;20405;-55
2021/06/06 00:33:27;;;;;;;120.90;51.50;;;;;;;;;;5051792;28;20491;-56
2021/06/06 00:35:53;;;;;;;112.00;49.00;;;;;;;;;;5051883;28;20847;-55
2021/06/06 00:38:19;;;;;;;108.60;49.37;;;;;;;;;;5051964;28;20425;-55
2021/06/06 00:40:45;;;;;;;98.57;46.47;;;;;;;;;;5051752;28;20496;-55
2021/06/06 00:43:11;;;;;;;89.03;45.67;;;;;;;;;;5051596;28;20402;-55
2021/06/06 00:45:38;;;;;;;95.00;44.80;;;;;;;;;;5051578;28;20912;-55
2021/06/06 00:48:05;;;;;;;99.97;45.63;;;;;;;;;;5051764;28;20928;-55
2021/06/06 00:50:33;;;;;;;107.50;48.10;;;;;;;;;;5051689;28;20401;-55
2021/06/06 00:53:01;;;;;;;108.83;47.77;;;;;;;;;;5051358;28;20444;-55
2021/06/06 00:55:27;;;;;;;118.07;51.27;;;;;;;;;;5051490;28;20914;-55
2021/06/06 00:57:54;;;;;;;107.40;51.80;;;;;;;;;;5051614;28;20402;-55
2021/06/06 01:00:29;;;;;;;112.60;50.73;;;;;;;;;;5051342;28;20487;-55
2021/06/06 01:02:55;;;;;;;113.83;53.00;;;;;;;;;;5050985;28;20415;-55
2021/06/06 01:05:27;;;;;;;100.20;49.50;;;;;;;;;;5051108;28;20496;-55
2021/06/06 01:07:53;;;;;;;106.53;49.50;;;;;;;;;;5051503;28;20426;-55
2021/06/06 01:10:19;;;;;;;98.90;48.20;;;;;;;;;;5051279;28;20937;-55
2021/06/06 01:12:49;;;;;;;98.90;49.73;;;;;;;;;;5051053;28;20546;-55
2021/06/06 01:15:22;;;;;;;101.40;48.53;;;;;;;;;;5051543;28;20743;-55
2021/06/06 01:17:57;;;;;;;94.70;49.50;;;;;;;;;;5051618;28;20404;-55
2021/06/06 01:20:26;;;;;;;111.43;51.20;;;;;;;;;;5051207;28;20412;-55
2021/06/06 01:23:00;;;;;;;111.67;53.00;;;;;;;;;;5050988;28;20901;-56
2021/06/06 01:25:28;;;;;;;118.40;53.23;;;;;;;;;;5051215;28;20881;-55
2021/06/06 01:27:57;;;;;;;106.87;50.70;;;;;;;;;;5051191;28;20401;-55
2021/06/06 01:30:26;;;;;;;118.20;52.80;;;;;;;;;;5051237;28;20494;-56
2021/06/06 01:33:07;;;;;;;112.83;55.50;;;;;;;;;;5050921;28;20496;-55
2021/06/06 01:35:36;;;;;;;99.03;51.97;;;;;;;;;;5050875;28;20601;-55
2021/06/06 01:38:20;;;;;;;112.23;52.67;;;;;;;;;;5050958;28;20439;-55
2021/06/06 01:40:48;;;;;;;95.43;47.53;;;;;;;;;;5050956;28;20408;-55
2021/06/06 01:43:17;;;;;;;95.47;47.37;;;;;;;;;;5050399;28;20398;-55
2021/06/06 01:45:55;;;;;;;94.17;49.70;;;;;;;;;;5050843;28;20405;-55
2021/06/06 01:48:21;;;;;;;98.87;48.13;;;;;;;;;;5050594;28;20490;-55
2021/06/06 01:50:49;;;;;;;91.90;46.27;;;;;;;;;;5050718;28;20376;-55
2021/06/06 01:53:16;;;;;;;87.20;42.07;;;;;;;;;;5050318;28;20453;-55
2021/06/06 01:55:44;;;;;;;74.97;38.80;;;;;;;;;;5050698;28;20412;-55
2021/06/06 01:58:12;;;;;;;76.43;39.23;;;;;;;;;;5050512;28;20471;-55
2021/06/06 02:00:44;;;;;;;71.00;36.00;;;;;;;;;;5050484;28;20394;-55
2021/06/06 02:03:11;;;;;;;71.60;37.17;;;;;;;;;;5050234;28;20463;-55
2021/06/06 02:05:37;;;;;;;70.00;36.83;;;;;;;;;;5050552;28;20384;-55
2021/06/06 02:08:04;;;;;;;53.70;34.63;;;;;;;;;;5050335;28;20401;-55
2021/06/06 02:10:34;;;;;;;67.93;33.43;;;;;;;;;;5050524;28;20408;-55
2021/06/06 02:13:05;;;;;;;67.67;35.87;;;;;;;;;;5049964;28;20455;-55
2021/06/06 02:15:32;;;;;;;72.63;40.90;;;;;;;;;;5050514;28;20402;-55
2021/06/06 02:17:59;;;;;;;79.60;40.23;;;;;;;;;;5050264;28;20402;-55
2021/06/06 02:20:27;;;;;;;82.90;41.50;;;;;;;;;;5050461;28;20376;-55
2021/06/06 02:22:54;;;;;;;83.70;40.00;;;;;;;;;;5048921;28;20417;-55
2021/06/06 02:25:20;;;;;;;79.60;41.53;;;;;;;;;;5050199;28;20497;-55
2021/06/06 02:27:49;;;;;;;85.57;42.60;;;;;;;;;;5050315;28;20401;-55
2021/06/06 02:30:15;;;;;;;85.37;45.57;;;;;;;;;;5050151;28;20537;-55
2021/06/06 02:32:55;;;;;;;78.47;40.87;;;;;;;;;;5050575;28;21103;-55
2021/06/06 02:35:21;;;;;;;85.63;42.73;;;;;;;;;;5054653;28;20435;-55
2021/06/06 02:37:50;;;;;;;85.67;44.43;;;;;;;;;;5054220;28;20380;-55
2021/06/06 02:40:29;;;;;;;94.43;44.03;;;;;;;;;;5053905;28;20460;-55
2021/06/06 02:42:57;;;;;;;83.83;43.83;;;;;;;;;;5053861;28;20401;-55
2021/06/06 02:45:26;;;;;;;89.00;41.13;;;;;;;;;;5053977;28;20881;-55
2021/06/06 02:47:53;;;;;;;89.40;41.77;;;;;;;;;;5054144;28;20405;-55
2021/06/06 02:50:22;;;;;;;84.33;42.10;;;;;;;;;;5053873;28;20982;-55
2021/06/06 02:52:52;;;;;;;82.97;42.40;;;;;;;;;;5053570;28;20423;-55
2021/06/06 02:55:20;;;;;;;84.77;42.37;;;;;;;;;;5052456;28;20484;-55
2021/06/06 02:57:48;;;;;;;74.50;41.50;;;;;;;;;;5053997;28;20398;-55
2021/06/06 03:00:24;;;;;;;71.67;39.87;;;;;;;;;;5053690;28;20457;-55
2021/06/06 03:02:52;;;;;;;64.60;36.83;;;;;;;;;;5053687;28;20408;-56
2021/06/06 03:05:19;;;;;;;70.00;35.30;;;;;;;;;;5053623;28;20430;-55
2021/06/06 03:07:48;;;;;;;61.30;34.03;;;;;;;;;;5053812;28;20484;-55
2021/06/06 03:10:16;;;;;;;58.10;32.70;;;;;;;;;;5053703;28;20520;-55
2021/06/06 03:12:43;;;;;;;54.03;32.33;;;;;;;;;;5053541;28;20531;-55
2021/06/06 03:15:11;;;;;;;55.60;30.30;;;;;;;;;;5053796;28;20748;-55
2021/06/06 03:17:39;;;;;;;49.83;28.27;;;;;;;;;;5053509;28;20389;-55
2021/06/06 03:20:07;;;;;;;52.43;30.23;;;;;;;;;;5053372;28;20425;-55
2021/06/06 03:22:35;;;;;;;48.83;29.00;;;;;;;;;;5053180;28;20404;-55
2021/06/06 03:25:05;;;;;;;50.40;28.60;;;;;;;;;;5053442;28;20448;-55
2021/06/06 03:27:34;;;;;;;54.10;31.57;;;;;;;;;;5053155;28;20905;-55
2021/06/06 03:30:26;;;;;;;53.07;32.73;;;;;;;;;;5053200;28;20422;-55
2021/06/06 03:32:54;;;;;;;52.70;30.97;;;;;;;;;;5044193;28;20475;-55
2021/06/06 03:35:20;;;;;;;47.57;28.47;;;;;;;;;;5053123;28;20421;-55
2021/06/06 03:37:46;;;;;;;50.23;27.90;;;;;;;;;;5052966;28;20405;-55
2021/06/06 03:40:12;;;;;;;44.33;28.77;;;;;;;;;;5053090;28;20399;-55
2021/06/06 03:42:39;;;;;;;42.83;27.87;;;;;;;;;;5052580;28;20372;-55
2021/06/06 03:45:06;;;;;;;43.77;28.20;;;;;;;;;;5051933;28;20629;-55
2021/06/06 03:47:32;;;;;;;46.10;26.70;;;;;;;;;;5052997;28;20413;-55
2021/06/06 03:49:58;;;;;;;41.00;24.93;;;;;;;;;;5052932;28;20417;-56
2021/06/06 03:52:24;;;;;;;49.43;26.80;;;;;;;;;;5052514;28;20449;-55
2021/06/06 03:54:53;;;;;;;43.33;28.23;;;;;;;;;;5052829;28;20405;-55
2021/06/06 03:57:19;;;;;;;37.70;26.33;;;;;;;;;;5052481;28;20406;-55
2021/06/06 03:59:44;;;;;;;42.77;27.10;;;;;;;;;;5052645;28;20424;-55
2021/06/06 04:02:10;;;;;;;39.63;26.20;;;;;;;;;;5052460;28;20929;-55
2021/06/06 04:04:36;;;;;;;48.47;26.73;;;;;;;;;;5052612;28;20902;-55
2021/06/06 04:07:03;;;;;;;42.07;26.63;;;;;;;;;;5052618;28;20922;-55
2021/06/06 04:09:29;;;;;;;45.13;27.30;;;;;;;;;;5052500;28;20418;-55
2021/06/06 04:11:55;;;;;;;36.30;25.70;;;;;;;;;;5052132;28;20768;-55
2021/06/06 04:14:21;;;;;;;40.23;25.10;;;;;;;;;;5052278;28;20404;-55
2021/06/06 04:16:47;;;;;;;40.90;25.87;;;;;;;;;;5052430;28;20602;-55
2021/06/06 04:19:13;;;;;;;35.67;24.57;;;;;;;;;;5052183;28;20763;-55
2021/06/06 04:21:39;;;;;;;37.57;24.17;;;;;;;;;;5052092;28;20397;-55
2021/06/06 04:24:05;;;;;;;39.40;26.00;;;;;;;;;;5052203;28;20494;-56
2021/06/06 04:26:31;;;;;;;38.00;23.10;;;;;;;;;;5052142;28;20429;-55
2021/06/06 04:28:57;;;;;;;37.47;24.43;;;;;;;;;;5052028;28;20980;-56
2021/06/06 04:31:24;;;;;;;36.43;24.90;;;;;;;;;;5051992;28;20406;-56
2021/06/06 04:33:50;;;;;;;41.53;24.47;;;;;;;;;;5051804;28;20456;-55
2021/06/06 04:36:16;;;;;;;41.30;24.80;;;;;;;;;;5052107;28;20401;-55
2021/06/06 04:38:42;;;;;;;36.53;22.80;;;;;;;;;;5051815;28;20455;-55
2021/06/06 04:41:10;;;;;;;31.43;21.70;;;;;;;;;;5051935;28;20405;-55
2021/06/06 04:43:36;;;;;;;35.83;22.10;;;;;;;;;;5050206;28;20417;-55
2021/06/06 04:46:03;;;;;;;32.27;21.53;;;;;;;;;;5051933;28;20468;-55
2021/06/06 04:48:31;;;;;;;35.10;21.53;;;;;;;;;;5051803;28;20464;-55
2021/06/06 04:50:58;;;;;;;32.37;21.47;;;;;;;;;;5051840;28;20380;-55
2021/06/06 04:53:24;;;;;;;30.87;20.87;;;;;;;;;;5051328;28;20440;-55
2021/06/06 04:55:51;;;;;;;34.13;22.47;;;;;;;;;;5051241;28;20432;-55
2021/06/06 04:58:18;;;;;;;36.10;21.90;;;;;;;;;;5051588;28;20425;-55
2021/06/06 05:00:44;;;;;;;33.80;19.67;;;;;;;;;;5051548;28;20401;-56
2021/06/06 05:03:11;;;;;;;28.67;18.67;;;;;;;;;;5051296;28;20381;-55
2021/06/06 05:05:38;;;;;;;36.43;21.70;;;;;;;;;;5051393;28;20889;-55
2021/06/06 05:08:04;;;;;;;37.10;21.83;;;;;;;;;;5051308;28;20384;-55
2021/06/06 05:10:33;;;;;;;32.83;20.37;;;;;;;;;;5051331;28;20409;-55
2021/06/06 05:12:59;;;;;;;30.30;20.70;;;;;;;;;;5051179;28;20555;-55
2021/06/06 05:15:25;;;;;;;36.30;19.80;;;;;;;;;;5051314;28;20408;-55
2021/06/06 05:17:51;;;;;;;34.90;21.07;;;;;;;;;;5051604;28;20842;-55
2021/06/06 05:20:19;;;;;;;27.50;19.87;;;;;;;;;;5051254;28;20424;-55
2021/06/06 05:22:45;;;;;;;31.23;20.00;;;;;;;;;;5051049;28;20413;-55
2021/06/06 05:25:11;;;;;;;30.23;19.90;;;;;;;;;;5051106;28;20380;-55
2021/06/06 05:27:37;;;;;;;31.00;19.70;;;;;;;;;;5051444;28;20391;-56
2021/06/06 05:30:08;;;;;;;28.77;19.70;;;;;;;;;;5051151;28;20421;-55
2021/06/06 05:32:34;;;;;;;31.67;21.40;;;;;;;;;;5050837;28;20480;-55
2021/06/06 05:35:00;;;;;;;30.63;20.90;;;;;;;;;;5050925;28;20432;-55
2021/06/06 05:37:26;;;;;;;32.47;20.30;;;;;;;;;;5050915;28;20402;-55
2021/06/06 05:39:53;;;;;;;36.70;22.70;;;;;;;;;;5050913;28;21008;-55
2021/06/06 05:42:19;;;;;;;27.70;20.63;;;;;;;;;;5050552;28;20380;-55
2021/06/06 05:44:45;;;;;;;34.43;21.93;;;;;;;;;;5050791;28;20401;-55
2021/06/06 05:47:11;;;;;;;31.17;22.30;;;;;;;;;;5050708;28;20383;-55
2021/06/06 05:49:37;;;;;;;36.80;24.30;;;;;;;;;;5050729;28;20425;-55
2021/06/06 05:52:04;;;;;;;31.27;23.70;;;;;;;;;;5050395;28;20521;-55
2021/06/06 05:54:30;;;;;;;35.87;24.50;;;;;;;;;;5050697;28;20404;-55
2021/06/06 05:56:56;;;;;;;39.40;27.63;;;;;;;;;;5050552;28;20372;-55
2021/06/06 05:59:22;;;;;;;47.93;26.70;;;;;;;;;;5050560;28;20421;-55
2021/06/06 06:01:48;;;;;;;38.37;25.97;;;;;;;;;;5050792;28;20754;-55
2021/06/06 06:04:14;;;;;;;42.70;27.80;;;;;;;;;;5050478;28;20405;-55
2021/06/06 06:06:40;;;;;;;42.33;28.20;;;;;;;;;;5050393;28;20808;-55
2021/06/06 06:09:06;;;;;;;38.87;24.97;;;;;;;;;;5049788;28;20459;-55
2021/06/06 06:11:33;;;;;;;37.57;26.40;;;;;;;;;;5050266;28;20890;-55
2021/06/06 06:13:58;;;;;;;37.90;26.97;;;;;;;;;;5050453;28;20506;-55
2021/06/06 06:16:27;;;;;;;46.73;27.90;;;;;;;;;;5050889;28;20368;-55
2021/06/06 06:18:53;;;;;;;39.73;26.27;;;;;;;;;;5050072;28;20391;-55
2021/06/06 06:21:20;;;;;;;42.37;26.90;;;;;;;;;;5050455;28;20397;-55
2021/06/06 06:23:46;;;;;;;35.73;25.67;;;;;;;;;;5050180;28;20458;-55
2021/06/06 06:26:12;;;;;;;37.47;26.50;;;;;;;;;;5050349;28;20401;-55
2021/06/06 06:28:40;;;;;;;43.70;27.17;;;;;;;;;;5050129;28;20421;-55
2021/06/06 06:31:06;;;;;;;39.80;28.63;;;;;;;;;;5050363;28;20866;-55
2021/06/06 06:33:33;;;;;;;39.80;27.97;;;;;;;;;;5049792;28;20932;-55
2021/06/06 06:35:59;;;;;;;42.80;29.00;;;;;;;;;;5050331;28;20437;-55
2021/06/06 06:38:26;;;;;;;43.00;27.43;;;;;;;;;;5050109;28;20388;-55
2021/06/06 06:40:53;;;;;;;49.93;33.53;;;;;;;;;;5050466;28;20360;-55
2021/06/06 06:43:19;;;;;;;57.87;35.77;;;;;;;;;;5049888;28;20881;-55
2021/06/06 06:45:45;;;;;;;58.30;36.70;;;;;;;;;;5050215;28;20523;-55
2021/06/06 06:48:13;;;;;;;59.50;35.27;;;;;;;;;;5049890;28;20402;-55
2021/06/06 06:50:39;;;;;;;58.80;35.47;;;;;;;;;;5050354;28;20433;-55
2021/06/06 06:53:05;;;;;;;63.30;35.67;;;;;;;;;;5050202;28;20457;-55
2021/06/06 06:55:31;;;;;;;67.27;35.80;;;;;;;;;;5050221;28;20838;-55
2021/06/06 06:57:59;;;;;;;55.47;34.80;;;;;;;;;;5050168;28;20472;-55
2021/06/06 07:00:27;;;;;;;52.67;33.90;;;;;;;;;;5050009;28;20407;-54
2021/06/06 07:02:53;;;;;;;60.90;34.37;;;;;;;;;;5048622;28;20435;-55
2021/06/06 07:05:19;;;;;;;62.90;34.93;;;;;;;;;;5049946;28;20876;-54
2021/06/06 07:07:45;;;;;;;51.97;34.10;;;;;;;;;;5050065;28;20845;-55
2021/06/06 07:10:13;;;;;;;58.70;35.80;;;;;;;;;;5049898;28;20453;-55
2021/06/06 07:12:39;;;;;;;54.00;35.07;;;;;;;;;;5049795;28;20502;-55
2021/06/06 07:15:07;;;;;;;59.13;36.23;;;;;;;;;;5049945;28;20940;-55
2021/06/06 07:17:33;;;;;;;64.97;35.90;;;;;;;;;;5050272;28;20409;-55
2021/06/06 07:20:02;;;;;;;57.30;36.93;;;;;;;;;;5052335;28;20478;-55
2021/06/06 07:22:28;;;;;;;60.93;34.53;;;;;;;;;;5053282;28;20409;-54
2021/06/06 07:24:54;;;;;;;62.97;36.50;;;;;;;;;;5053322;28;20394;-54
2021/06/06 07:27:20;;;;;;;62.77;35.53;;;;;;;;;;5053572;28;20485;-55
2021/06/06 07:29:48;;;;;;;61.33;36.13;;;;;;;;;;5053070;28;20426;-55
2021/06/06 07:32:14;;;;;;;61.70;36.70;;;;;;;;;;5052900;28;20474;-55
2021/06/06 07:34:40;;;;;;;59.40;35.30;;;;;;;;;;5053050;28;20460;-55
2021/06/06 07:37:07;;;;;;;59.50;35.73;;;;;;;;;;5053235;28;20393;-55
2021/06/06 07:39:33;;;;;;;56.77;34.03;;;;;;;;;;5053474;28;20429;-55
2021/06/06 07:41:59;;;;;;;66.80;36.07;;;;;;;;;;5052802;28;20398;-55
2021/06/06 07:44:26;;;;;;;58.03;35.87;;;;;;;;;;5052980;28;20393;-55
2021/06/06 07:46:52;;;;;;;61.93;33.83;;;;;;;;;;5052909;28;20901;-55
2021/06/06 07:49:18;;;;;;;48.67;31.10;;;;;;;;;;5052827;28;20921;-55
2021/06/06 07:51:44;;;;;;;61.37;34.80;;;;;;;;;;5052661;28;20388;-55
2021/06/06 07:54:10;;;;;;;59.67;35.13;;;;;;;;;;5052822;28;20453;-55
2021/06/06 07:56:36;;;;;;;57.70;32.13;;;;;;;;;;5052668;28;20401;-55
2021/06/06 07:59:04;;;;;;;49.67;34.10;;;;;;;;;;5052640;28;20402;-55
2021/06/06 08:01:30;;;;;;;57.10;34.93;;;;;;;;;;5052811;28;20806;-55
2021/06/06 08:03:56;;;;;;;56.20;35.23;;;;;;;;;;5052619;28;20432;-55
2021/06/06 08:06:22;;;;;;;56.53;32.50;;;;;;;;;;5052546;28;20972;-55
2021/06/06 08:08:48;;;;;;;50.80;31.30;;;;;;;;;;5052489;28;20417;-55
2021/06/06 08:11:14;;;;;;;49.07;32.00;;;;;;;;;;5052248;28;20406;-55
2021/06/06 08:13:41;;;;;;;56.20;31.97;;;;;;;;;;5052300;28;20476;-55
2021/06/06 08:16:07;;;;;;;54.37;31.90;;;;;;;;;;5052326;28;20394;-55
2021/06/06 08:18:35;;;;;;;53.07;34.63;;;;;;;;;;5052516;28;20441;-55
2021/06/06 08:21:04;;;;;;;63.43;35.77;;;;;;;;;;5052403;28;20852;-55
2021/06/06 08:23:30;;;;;;;61.67;33.17;;;;;;;;;;5051943;28;20416;-56
2021/06/06 08:25:57;;;;;;;52.47;34.23;;;;;;;;;;5052214;28;20405;-55
2021/06/06 08:28:23;;;;;;;68.27;34.47;;;;;;;;;;5052065;28;20440;-55
2021/06/06 08:30:52;;;;;;;58.93;34.60;;;;;;;;;;5051673;28;20405;-55
2021/06/06 08:33:19;;;;;;;57.50;34.73;;;;;;;;;;5051830;28;20467;-55
2021/06/06 08:35:45;;;;;;;60.93;35.70;;;;;;;;;;5052640;28;20528;-54
2021/06/06 08:38:11;;;;;;;60.57;36.17;;;;;;;;;;5052284;28;20402;-53
2021/06/06 08:40:45;;;;;;;60.10;35.17;;;;;;;;;;5052433;28;20885;-55
2021/06/06 08:43:12;;;;;;;64.07;36.77;;;;;;;;;;5050434;28;20456;-55
2021/06/06 08:45:58;;;;;;;60.83;35.77;;;;;;;;;;5051896;28;20420;-53
2021/06/06 08:48:24;;;;;;;53.17;35.30;;;;;;;;;;5051674;28;20425;-53
2021/06/06 08:50:55;;;;;;;57.23;36.37;;;;;;;;;;5051848;28;20856;-53
2021/06/06 08:53:27;;;;;;;53.60;34.90;;;;;;;;;;5051303;28;20544;-55
2021/06/06 08:55:56;;;;;;;57.33;36.37;;;;;;;;;;5051694;28;20402;-53
2021/06/06 08:58:38;;;;;;;57.93;36.73;;;;;;;;;;5051414;28;20409;-53
2021/06/06 09:01:11;;;;;;;54.80;36.60;;;;;;;;;;5051609;28;20401;-54
2021/06/06 09:03:37;;;;;;;58.33;33.70;;;;;;;;;;5051279;28;20376;-52
2021/06/06 09:06:09;;;;;;;53.83;34.20;;;;;;;;;;5051578;28;20500;-53
2021/06/06 09:08:38;;;;;;;52.70;35.90;;;;;;;;;;5051376;28;20452;-53
2021/06/06 09:11:05;;;;;;;53.90;34.40;;;;;;;;;;5051623;28;20416;-52
2021/06/06 09:13:31;;;;;;;57.10;33.07;;;;;;;;;;5051098;28;20692;-53
2021/06/06 09:16:18;;;;;;;48.47;34.00;;;;;;;;;;5051119;28;20907;-53
2021/06/06 09:18:47;;;;;;;56.57;33.97;;;;;;;;;;5050803;28;20429;-53
2021/06/06 09:21:15;;;;;;;50.93;33.73;;;;;;;;;;5051160;28;20918;-58
2021/06/06 09:23:41;;;;;;;50.10;33.80;;;;;;;;;;5051270;28;20762;-53
2021/06/06 09:26:09;;;;;;;49.07;31.07;;;;;;;;;;5051593;28;20448;-53
2021/06/06 09:28:37;;;;;;;45.07;28.93;;;;;;;;;;5051367;28;20392;-53
2021/06/06 09:31:18;;;;;;;51.70;32.20;;;;;;;;;;5051056;28;20413;-53
2021/06/06 09:33:45;;;;;;;46.17;31.50;;;;;;;;;;5050871;28;20454;-53
2021/06/06 09:36:17;;;;;;;46.80;31.00;;;;;;;;;;5051084;28;20380;-53
2021/06/06 09:38:43;;;;;;;39.87;29.53;;;;;;;;;;5050900;28;20927;-53
2021/06/06 09:41:15;;;;;;;45.73;30.70;;;;;;;;;;5050710;28;20376;-54
2021/06/06 09:43:56;;;;;;;39.50;28.93;;;;;;;;;;5049830;28;20406;-55
2021/06/06 09:46:22;;;;;;;46.50;32.53;;;;;;;;;;5050720;28;20401;-53
2021/06/06 09:48:49;;;;;;;48.40;32.13;;;;;;;;;;5050755;28;20468;-53
2021/06/06 09:51:36;;;;;;;51.03;34.67;;;;;;;;;;5050381;28;20380;-53
2021/06/06 09:54:12;;;;;;;59.17;37.00;;;;;;;;;;5050752;28;20453;-55
2021/06/06 09:56:39;;;;;;;57.37;36.43;;;;;;;;;;5050537;28;20395;-53
2021/06/06 09:59:31;;;;;;;60.67;36.43;;;;;;;;;;5050767;28;20420;-53
2021/06/06 10:02:21;;;;;;;49.40;33.23;;;;;;;;;;5049111;28;20413;-53
2021/06/06 10:04:47;;;;;;;51.80;32.07;;;;;;;;;;5050673;28;20874;-53
2021/06/06 10:07:13;;;;;;;50.90;32.47;;;;;;;;;;5050490;28;20630;-53
2021/06/06 10:09:39;;;;;;;50.17;31.37;;;;;;;;;;5050455;28;20936;-53
2021/06/06 10:12:06;;;;;;;55.33;33.03;;;;;;;;;;5050096;28;20878;-56
2021/06/06 10:14:42;;;;;;;55.60;33.80;;;;;;;;;;5050353;28;20890;-53
2021/06/06 10:17:10;;;;;;;48.93;31.93;;;;;;;;;;5049173;28;20408;-54
2021/06/06 10:19:59;;;;;;;51.70;30.83;;;;;;;;;;5050858;28;20726;-53
2021/06/06 10:22:29;;;;;;;46.83;29.83;;;;;;;;;;5050066;28;20405;-54
2021/06/06 10:25:00;;;;;;;51.23;30.80;;;;;;;;;;5050230;28;20380;-53
2021/06/06 10:27:32;;;;;;;51.73;30.90;;;;;;;;;;5050440;28;20968;-55
2021/06/06 10:30:13;;;;;;;47.67;29.60;;;;;;;;;;5050165;28;20504;-53
2021/06/06 10:32:44;;;;;;;47.07;31.60;;;;;;;;;;5050018;28;20466;-53
2021/06/06 10:35:14;;;;;;;44.90;29.83;;;;;;;;;;5049895;28;20423;-55
2021/06/06 10:37:41;;;;;;;48.83;30.57;;;;;;;;;;5050344;28;20517;-53
2021/06/06 10:40:10;;;;;;;39.10;27.00;;;;;;;;;;5050024;28;20880;-52
2021/06/06 10:42:43;;;;;;;39.80;28.50;;;;;;;;;;5049935;28;20408;-54
2021/06/06 10:45:20;;;;;;;42.80;28.27;;;;;;;;;;5050061;28;20780;-53
2021/06/06 10:47:48;;;;;;;40.30;28.50;;;;;;;;;;5050099;28;20376;-55
2021/06/06 10:50:24;;;;;;;39.63;27.60;;;;;;;;;;5049904;28;20490;-53
2021/06/06 10:52:51;;;;;;;39.03;28.37;;;;;;;;;;5049334;28;20476;-55
2021/06/06 10:55:32;;;;;;;36.20;26.77;;;;;;;;;;5053048;28;20372;-53
2021/06/06 10:58:10;;;;;;;43.40;28.07;;;;;;;;;;5053780;28;20405;-54
2021/06/06 11:00:39;;;;;;;44.47;30.33;;;;;;;;;;5053758;28;20900;-55
2021/06/06 11:03:22;;;;;;;46.00;30.77;;;;;;;;;;5053657;28;20376;-53
2021/06/06 11:06:09;;;;;;;43.20;32.43;;;;;;;;;;5053884;28;20409;-55
2021/06/06 11:08:37;;;;;;;47.67;32.57;;;;;;;;;;5053389;28;20483;-56
2021/06/06 11:11:16;;;;;;;47.37;33.27;;;;;;;;;;5053743;28;20383;-53
2021/06/06 11:13:43;;;;;;;53.17;35.13;;;;;;;;;;5053417;28;20434;-52
2021/06/06 11:16:21;;;;;;;52.63;35.67;;;;;;;;;;5053711;28;20372;-53
2021/06/06 11:18:53;;;;;;;53.50;34.80;;;;;;;;;;5053372;28;20399;-56
2021/06/06 11:21:30;;;;;;;51.20;38.00;;;;;;;;;;5053425;28;20406;-53
2021/06/06 11:23:58;;;;;;;55.50;38.20;;;;;;;;;;5053556;28;20883;-53
2021/06/06 11:26:27;;;;;;;54.67;36.63;;;;;;;;;;5053935;28;20744;-53
2021/06/06 11:29:05;;;;;;;51.63;35.57;;;;;;;;;;5053377;28;20505;-53
2021/06/06 11:31:34;;;;;;;52.20;33.03;;;;;;;;;;5052847;28;20379;-56
2021/06/06 11:34:01;;;;;;;54.27;34.43;;;;;;;;;;5052795;28;20464;-55
2021/06/06 11:36:48;;;;;;;47.13;33.37;;;;;;;;;;5053240;28;20397;-55
2021/06/06 11:39:19;;;;;;;43.30;31.00;;;;;;;;;;5052993;28;20908;-53
2021/06/06 11:41:47;;;;;;;46.33;33.30;;;;;;;;;;5052779;28;20438;-53
2021/06/06 11:44:28;;;;;;;43.70;32.80;;;;;;;;;;5053056;28;20405;-53
2021/06/06 11:47:07;;;;;;;45.87;33.17;;;;;;;;;;5053187;28;20372;-53
2021/06/06 11:49:38;;;;;;;44.87;32.93;;;;;;;;;;5052962;28;20429;-53
2021/06/06 11:52:08;;;;;;;40.10;29.73;;;;;;;;;;5053024;28;20401;-55
2021/06/06 11:54:42;;;;;;;41.83;29.13;;;;;;;;;;5052741;28;20386;-55
2021/06/06 11:57:11;;;;;;;40.67;29.50;;;;;;;;;;5052585;28;20371;-53
2021/06/06 11:59:44;;;;;;;35.27;28.50;;;;;;;;;;5051572;28;20404;-53
2021/06/06 12:02:16;;;;;;;43.17;29.47;;;;;;;;;;5052427;28;20943;-53
2021/06/06 12:04:42;;;;;;;37.40;27.07;;;;;;;;;;5052484;28;20960;-53
2021/06/06 12:07:13;;;;;;;36.17;28.07;;;;;;;;;;5051589;28;20433;-53
2021/06/06 12:09:40;;;;;;;39.03;27.67;;;;;;;;;;5052519;28;20475;-54
2021/06/06 12:12:09;;;;;;;36.90;26.90;;;;;;;;;;5052134;28;20852;-55
2021/06/06 12:14:35;;;;;;;40.33;28.50;;;;;;;;;;5052467;28;20751;-53
2021/06/06 12:17:04;;;;;;;36.50;27.40;;;;;;;;;;5051052;28;20492;-53
2021/06/06 12:19:43;;;;;;;32.53;24.60;;;;;;;;;;5052248;28;20400;-53
2021/06/06 12:22:09;;;;;;;28.87;22.50;;;;;;;;;;5052402;28;20383;-55
2021/06/06 12:24:35;;;;;;;32.07;23.73;;;;;;;;;;5052178;28;20775;-53
2021/06/06 12:27:14;;;;;;;31.17;24.40;;;;;;;;;;5052234;28;20429;-53
2021/06/06 12:29:46;;;;;;;34.47;24.90;;;;;;;;;;5052032;28;20417;-53
2021/06/06 12:32:13;;;;;;;33.83;24.40;;;;;;;;;;5052000;28;20412;-53
2021/06/06 12:34:40;;;;;;;30.30;24.13;;;;;;;;;;5051951;28;20478;-52
2021/06/06 12:37:10;;;;;;;37.57;24.97;;;;;;;;;;5052530;28;20425;-53
2021/06/06 12:39:37;;;;;;;33.70;24.13;;;;;;;;;;5051921;28;20421;-53
2021/06/06 12:42:05;;;;;;;35.70;25.23;;;;;;;;;;5051727;28;20405;-53
2021/06/06 12:44:34;;;;;;;33.50;24.97;;;;;;;;;;5051663;28;20451;-52
2021/06/06 12:47:05;;;;;;;31.13;24.67;;;;;;;;;;5051896;28;20383;-55
2021/06/06 12:49:40;;;;;;;39.93;27.73;;;;;;;;;;5051890;28;20392;-53
2021/06/06 12:52:15;;;;;;;34.67;25.53;;;;;;;;;;5051608;28;20379;-55
2021/06/06 12:54:42;;;;;;;43.50;25.70;;;;;;;;;;5051548;28;20401;-53
2021/06/06 12:57:14;;;;;;;34.77;26.27;;;;;;;;;;5051681;28;20491;-53
2021/06/06 12:59:40;;;;;;;40.00;26.27;;;;;;;;;;5051516;28;20421;-53
2021/06/06 13:02:11;;;;;;;36.00;25.70;;;;;;;;;;5051507;28;20407;-53
2021/06/06 13:04:38;;;;;;;34.53;25.83;;;;;;;;;;5050137;28;20380;-56
2021/06/06 13:07:16;;;;;;;37.77;27.60;;;;;;;;;;5051381;28;20898;-53
2021/06/06 13:09:46;;;;;;;37.83;27.93;;;;;;;;;;5051369;28;20500;-53
2021/06/06 13:12:12;;;;;;;36.73;27.23;;;;;;;;;;5051559;28;20416;-53
2021/06/06 13:14:50;;;;;;;36.30;28.00;;;;;;;;;;5051524;28;20978;-54
2021/06/06 13:17:25;;;;;;;37.33;26.70;;;;;;;;;;5051281;28;20393;-53
2021/06/06 13:19:51;;;;;;;40.87;27.23;;;;;;;;;;5051345;28;20912;-53
2021/06/06 13:22:25;;;;;;;42.90;28.83;;;;;;;;;;5051032;28;20432;-53
2021/06/06 13:24:52;;;;;;;41.17;30.83;;;;;;;;;;5051417;28;20467;-53
2021/06/06 13:27:22;;;;;;;40.23;28.27;;;;;;;;;;5051289;28;20815;-54
2021/06/06 13:29:49;;;;;;;38.20;28.80;;;;;;;;;;5051924;28;20937;-53
2021/06/06 13:32:21;;;;;;;43.20;30.17;;;;;;;;;;5049402;28;20413;-53
2021/06/06 13:34:48;;;;;;;43.17;29.80;;;;;;;;;;5050259;28;20812;-53
2021/06/06 13:37:15;;;;;;;38.73;29.57;;;;;;;;;;5051021;28;20401;-56
2021/06/06 13:39:41;;;;;;;39.50;29.33;;;;;;;;;;5051013;28;20795;-53
2021/06/06 13:42:10;;;;;;;42.67;31.63;;;;;;;;;;5050832;28;20476;-53
2021/06/06 13:44:37;;;;;;;42.97;30.50;;;;;;;;;;5050912;28;20384;-53
2021/06/06 13:47:03;;;;;;;43.83;30.07;;;;;;;;;;5050798;28;20374;-56
2021/06/06 13:49:29;;;;;;;44.47;29.43;;;;;;;;;;5050833;28;20750;-53
2021/06/06 13:51:56;;;;;;;36.03;26.47;;;;;;;;;;5050693;28;20455;-53
2021/06/06 13:54:22;;;;;;;37.30;26.67;;;;;;;;;;5050520;28;20960;-53
2021/06/06 13:56:50;;;;;;;35.77;27.30;;;;;;;;;;5050825;28;20433;-53
2021/06/06 13:59:16;;;;;;;41.43;25.63;;;;;;;;;;5050522;28;20900;-53
2021/06/06 14:01:42;;;;;;;37.63;25.00;;;;;;;;;;5050559;28;20739;-53
2021/06/06 14:04:09;;;;;;;35.20;25.00;;;;;;;;;;5050591;28;20378;-53
2021/06/06 14:06:35;;;;;;;32.73;24.57;;;;;;;;;;5050755;28;20402;-53
2021/06/06 14:09:01;;;;;;;35.87;24.77;;;;;;;;;;5050478;28;20511;-55
2021/06/06 14:11:34;;;;;;;36.57;27.80;;;;;;;;;;5050486;28;20412;-56
2021/06/06 14:14:00;;;;;;;33.80;26.10;;;;;;;;;;5050276;28;20919;-55
2021/06/06 14:16:28;;;;;;;33.27;26.73;;;;;;;;;;5050663;28;20502;-55
2021/06/06 14:18:55;;;;;;;33.93;26.10;;;;;;;;;;5050430;28;20437;-55
2021/06/06 14:21:24;;;;;;;30.70;24.57;;;;;;;;;;5050326;28;20402;-53
2021/06/06 14:23:52;;;;;;;29.10;24.63;;;;;;;;;;5050316;28;20401;-55
2021/06/06 14:26:21;;;;;;;34.50;27.20;;;;;;;;;;5050493;28;20411;-53